createdAt,value
2023-07-23T00:00:05.075Z,1.70
2023-07-23T00:02:33.068Z,1.80
2023-07-23T00:05:01.122Z,1.85
2023-07-23T00:07:29.353Z,2.30
2023-07-23T00:09:57.400Z,2.05
2023-07-23T00:12:25.442Z,1.60
2023-07-23T00:14:53.638Z,2.05
2023-07-23T00:17:24.706Z,1.90
2023-07-23T00:19:55.159Z,2.20
2023-07-23T00:22:23.247Z,1.73
2023-07-23T00:24:51.311Z,1.77
2023-07-23T00:27:21.945Z,2.03
2023-07-23T00:29:49.950Z,1.95
2023-07-23T00:32:17.953Z,2.00
2023-07-23T00:34:46.071Z,2.22
2023-07-23T00:37:14.110Z,2.30
2023-07-23T00:39:42.091Z,1.83
2023-07-23T00:42:10.411Z,1.80
2023-07-23T00:44:41.420Z,1.95
2023-07-23T00:47:10.235Z,2.10
2023-07-23T00:49:38.590Z,2.22
2023-07-23T00:52:08.686Z,3.13
2023-07-23T00:54:37.108Z,2.03
2023-07-23T00:57:06.910Z,2.50
2023-07-23T00:59:35.683Z,3.28
2023-07-23T01:02:04.037Z,2.38
2023-07-23T01:04:34.752Z,2.45
2023-07-23T01:07:06.555Z,1.73
2023-07-23T01:09:38.773Z,1.95
2023-07-23T01:12:07.487Z,2.35
2023-07-23T01:14:35.561Z,2.25
2023-07-23T01:17:06.995Z,1.98
2023-07-23T01:19:37.834Z,2.17
2023-07-23T01:22:08.884Z,2.22
2023-07-23T01:24:37.009Z,2.17
2023-07-23T01:27:05.500Z,2.17
2023-07-23T01:29:33.616Z,2.83
2023-07-23T01:32:01.642Z,2.00
2023-07-23T01:34:32.117Z,2.28
2023-07-23T01:37:00.531Z,2.17
2023-07-23T01:39:28.710Z,2.10
2023-07-23T01:42:04.532Z,1.92
2023-07-23T01:44:32.612Z,2.00
2023-07-23T01:47:03.030Z,1.73
2023-07-23T01:49:31.524Z,2.53
2023-07-23T01:52:01.917Z,1.95
2023-07-23T01:54:29.979Z,2.28
2023-07-23T01:56:58.210Z,2.22
2023-07-23T01:59:26.335Z,2.17
2023-07-23T02:01:54.414Z,2.47
2023-07-23T02:04:22.568Z,2.60
2023-07-23T02:06:50.672Z,2.08
2023-07-23T02:09:18.777Z,2.10
2023-07-23T02:11:46.890Z,2.20
2023-07-23T02:14:14.899Z,1.80
2023-07-23T02:16:45.957Z,1.58
2023-07-23T02:19:17.631Z,1.90
2023-07-23T02:21:45.651Z,1.98
2023-07-23T02:24:13.746Z,2.05
2023-07-23T02:26:41.935Z,1.52
2023-07-23T02:29:10.005Z,1.75
2023-07-23T02:31:38.096Z,1.85
2023-07-23T02:34:08.859Z,2.10
2023-07-23T02:36:37.324Z,2.08
2023-07-23T02:39:05.545Z,2.13
2023-07-23T02:41:33.682Z,2.55
2023-07-23T02:44:05.922Z,1.60
2023-07-23T02:46:34.676Z,2.03
2023-07-23T02:49:02.742Z,1.92
2023-07-23T02:51:36.278Z,1.95
2023-07-23T02:56:32.034Z,1.80
2023-07-23T02:59:00.374Z,1.95
2023-07-23T03:01:28.776Z,1.83
2023-07-23T03:03:56.953Z,2.70
2023-07-23T03:06:28.054Z,2.20
2023-07-23T03:08:56.149Z,1.90
2023-07-23T03:11:24.194Z,1.73
2023-07-23T03:13:52.299Z,2.00
2023-07-23T03:16:23.403Z,1.52
2023-07-23T03:18:51.485Z,1.77
2023-07-23T03:21:22.443Z,1.98
2023-07-23T03:23:52.806Z,1.70
2023-07-23T03:26:20.849Z,1.50
2023-07-23T03:28:48.853Z,2.05
2023-07-23T03:31:19.265Z,1.63
2023-07-23T03:33:47.331Z,1.60
2023-07-23T03:36:15.389Z,1.60
2023-07-23T03:38:46.325Z,1.98
2023-07-23T03:41:17.287Z,1.67
2023-07-23T03:43:47.677Z,1.88
2023-07-23T03:46:16.026Z,1.77
2023-07-23T03:48:49.196Z,2.20
2023-07-23T03:51:17.538Z,1.55
2023-07-23T03:53:45.564Z,1.70
2023-07-23T03:56:13.653Z,1.52
2023-07-23T03:58:41.730Z,1.70
2023-07-23T04:01:09.798Z,1.80
2023-07-23T04:03:43.452Z,1.88
2023-07-23T04:06:11.486Z,1.60
2023-07-23T04:08:39.474Z,1.77
2023-07-23T04:11:07.586Z,1.83
2023-07-23T04:13:38.232Z,1.90
2023-07-23T04:16:11.600Z,1.50
2023-07-23T04:18:53.565Z,1.52
2023-07-23T04:21:22.388Z,1.77
2023-07-23T04:23:51.656Z,1.65
2023-07-23T04:26:21.124Z,1.75
2023-07-23T04:28:51.873Z,1.50
2023-07-23T04:31:20.802Z,1.60
2023-07-23T04:33:49.143Z,1.98
2023-07-23T04:36:20.413Z,1.48
2023-07-23T04:38:48.730Z,1.98
2023-07-23T04:41:19.112Z,1.83
2023-07-23T04:43:47.173Z,1.73
2023-07-23T04:46:20.411Z,1.70
2023-07-23T04:48:48.465Z,2.00
2023-07-23T04:51:19.488Z,1.80
2023-07-23T04:53:47.580Z,1.60
2023-07-23T04:56:15.597Z,2.22
2023-07-23T04:58:43.648Z,2.10
2023-07-23T05:01:13.110Z,1.88
2023-07-23T05:03:41.907Z,1.80
2023-07-23T05:06:10.051Z,1.75
2023-07-23T05:08:38.220Z,1.60
2023-07-23T05:11:09.139Z,1.83
2023-07-23T05:13:40.058Z,2.05
2023-07-23T05:16:08.170Z,1.70
2023-07-23T05:18:39.274Z,1.70
2023-07-23T05:21:09.711Z,2.00
2023-07-23T05:23:37.725Z,2.00
2023-07-23T05:26:08.069Z,1.90
2023-07-23T05:28:36.192Z,1.80
2023-07-23T05:31:04.261Z,2.05
2023-07-23T05:33:32.367Z,1.60
2023-07-23T05:36:00.955Z,1.90
2023-07-23T05:38:28.965Z,1.67
2023-07-23T05:41:00.061Z,1.73
2023-07-23T05:43:30.527Z,1.75
2023-07-23T05:46:01.289Z,2.45
2023-07-23T05:48:29.336Z,2.50
2023-07-23T05:50:57.457Z,2.00
2023-07-23T05:53:25.521Z,2.10
2023-07-23T05:55:53.562Z,1.88
2023-07-23T05:58:21.692Z,2.00
2023-07-23T06:00:50.139Z,2.25
2023-07-23T06:03:18.342Z,2.15
2023-07-23T06:05:46.576Z,2.10
2023-07-23T06:08:14.570Z,2.10
2023-07-23T06:10:43.583Z,1.70
2023-07-23T06:13:11.733Z,2.03
2023-07-23T06:15:42.756Z,2.03
2023-07-23T06:18:13.464Z,1.73
2023-07-23T06:20:41.511Z,1.88
2023-07-23T06:23:09.598Z,2.28
2023-07-23T06:25:40.574Z,1.85
2023-07-23T06:28:08.584Z,1.80
2023-07-23T06:30:37.270Z,1.90
2023-07-23T06:33:05.674Z,1.90
2023-07-23T06:35:38.709Z,2.10
2023-07-23T06:38:06.885Z,1.80
2023-07-23T06:40:34.927Z,2.40
2023-07-23T06:43:03.477Z,2.10
2023-07-23T06:45:31.521Z,2.08
2023-07-23T06:48:02.491Z,2.10
2023-07-23T06:50:30.636Z,2.22
2023-07-23T06:53:00.441Z,2.15
2023-07-23T06:55:33.257Z,2.00
2023-07-23T06:58:01.241Z,1.83
2023-07-23T07:00:29.369Z,2.30
2023-07-23T07:03:00.089Z,1.85
2023-07-23T07:05:28.177Z,1.90
2023-07-23T07:07:56.193Z,2.30
2023-07-23T07:10:24.545Z,1.90
2023-07-23T07:12:55.452Z,2.00
2023-07-23T07:15:23.456Z,1.90
2023-07-23T07:17:51.763Z,1.80
2023-07-23T07:20:24.849Z,1.85
2023-07-23T07:22:55.546Z,1.90
2023-07-23T07:25:26.395Z,2.08
2023-07-23T07:27:57.113Z,1.80
2023-07-23T07:30:25.219Z,2.10
2023-07-23T07:32:56.093Z,2.13
2023-07-23T07:35:26.843Z,1.92
2023-07-23T07:37:54.893Z,1.77
2023-07-23T07:40:22.952Z,1.77
2023-07-23T07:42:54.179Z,2.17
2023-07-23T07:45:25.010Z,1.70
2023-07-23T07:47:53.245Z,2.00
2023-07-23T07:50:24.212Z,2.42
2023-07-23T07:52:52.235Z,1.90
2023-07-23T07:55:20.304Z,1.90
2023-07-23T07:57:48.748Z,2.05
2023-07-23T08:00:17.165Z,2.33
2023-07-23T08:02:45.653Z,2.20
2023-07-23T08:05:14.523Z,1.92
2023-07-23T08:07:45.874Z,1.88
2023-07-23T08:10:14.568Z,1.75
2023-07-23T08:12:43.676Z,1.75
2023-07-23T08:15:14.259Z,1.95
2023-07-23T08:17:42.681Z,2.08
2023-07-23T08:20:14.100Z,2.03
2023-07-23T08:22:42.473Z,1.98
2023-07-23T08:25:11.264Z,2.13
2023-07-23T08:27:39.614Z,2.10
2023-07-23T08:30:11.763Z,2.40
2023-07-23T08:32:43.495Z,1.95
2023-07-23T08:35:12.306Z,2.30
2023-07-23T08:37:40.628Z,2.00
2023-07-23T08:40:12.894Z,2.20
2023-07-23T08:42:56.161Z,2.28
2023-07-23T08:46:01.184Z,2.20
2023-07-23T08:48:56.793Z,2.38
2023-07-23T08:51:33.386Z,2.17
2023-07-23T08:54:04.279Z,2.05
2023-07-23T08:56:32.330Z,2.10
2023-07-23T08:59:06.739Z,2.10
2023-07-23T09:01:40.043Z,1.90
2023-07-23T09:04:14.485Z,2.50
2023-07-23T09:06:46.538Z,2.10
2023-07-23T09:09:15.735Z,2.60
2023-07-23T09:11:44.101Z,2.08
2023-07-23T09:14:14.789Z,2.60
2023-07-23T09:16:50.531Z,2.60
2023-07-23T09:19:27.049Z,2.38
2023-07-23T09:21:59.232Z,2.70
2023-07-23T09:24:33.706Z,2.83
2023-07-23T09:27:04.095Z,2.33
2023-07-23T09:29:39.868Z,2.33
2023-07-23T09:32:28.236Z,2.30
2023-07-23T09:34:57.434Z,2.50
2023-07-23T09:37:31.688Z,2.67
2023-07-23T09:40:00.199Z,2.38
2023-07-23T09:42:28.337Z,2.70
2023-07-23T09:45:04.432Z,2.30
2023-07-23T09:47:38.733Z,2.33
2023-07-23T09:50:07.666Z,2.92
2023-07-23T09:52:36.721Z,2.30
2023-07-23T09:55:05.580Z,2.58
2023-07-23T09:57:36.204Z,2.42
2023-07-23T10:00:05.590Z,2.38
2023-07-23T10:02:40.441Z,2.50
2023-07-23T10:05:09.689Z,2.38
2023-07-23T10:07:42.726Z,2.55
2023-07-23T10:10:14.005Z,3.00
2023-07-23T10:12:42.523Z,2.33
2023-07-23T10:15:13.236Z,2.42
2023-07-23T10:17:54.402Z,2.60
2023-07-23T10:20:25.168Z,2.05
2023-07-23T10:22:55.737Z,2.47
2023-07-23T10:28:04.550Z,2.67
2023-07-23T10:30:36.425Z,2.20
2023-07-23T10:33:13.687Z,2.72
2023-07-23T10:35:54.329Z,2.35
2023-07-23T10:38:36.130Z,2.45
2023-07-23T10:41:05.243Z,2.40
2023-07-23T10:43:43.403Z,2.10
2023-07-23T10:46:14.029Z,2.58
2023-07-23T10:48:48.351Z,2.38
2023-07-23T10:51:24.030Z,2.50
2023-07-23T10:54:05.230Z,3.03
2023-07-23T10:56:40.959Z,2.28
2023-07-23T10:59:11.335Z,2.63
2023-07-23T11:01:43.741Z,2.90
2023-07-23T11:04:29.942Z,2.75
2023-07-23T11:07:07.201Z,2.63
2023-07-23T11:09:38.960Z,2.45
2023-07-23T11:12:07.760Z,2.47
2023-07-23T11:14:38.321Z,2.45
2023-07-23T11:17:06.908Z,3.13
2023-07-23T11:19:35.074Z,2.80
2023-07-23T11:22:05.942Z,2.45
2023-07-23T11:24:36.539Z,3.03
2023-07-23T11:27:05.678Z,2.40
2023-07-23T11:29:35.540Z,2.60
2023-07-23T11:32:05.036Z,2.65
2023-07-23T11:34:35.655Z,3.38
2023-07-23T11:37:03.664Z,2.60
2023-07-23T11:39:31.758Z,2.88
2023-07-23T11:41:59.919Z,3.03
2023-07-23T11:44:31.381Z,4.00
2023-07-23T11:47:04.062Z,3.22
2023-07-23T11:49:34.436Z,2.88
2023-07-23T11:52:03.437Z,3.20
2023-07-23T11:54:34.066Z,2.92
2023-07-23T11:57:05.242Z,2.42
2023-07-23T11:59:35.660Z,3.13
2023-07-23T12:02:03.740Z,3.33
2023-07-23T12:04:40.634Z,3.30
2023-07-23T12:07:11.288Z,3.00
2023-07-23T12:09:42.025Z,2.92
2023-07-23T12:12:14.246Z,2.80
2023-07-23T12:14:44.935Z,2.65
2023-07-23T12:17:13.865Z,2.83
2023-07-23T12:19:44.492Z,3.10
2023-07-23T12:22:17.806Z,3.28
2023-07-23T12:24:45.834Z,3.03
2023-07-23T12:27:13.893Z,3.13
2023-07-23T12:29:44.564Z,3.65
2023-07-23T12:32:20.390Z,2.60
2023-07-23T12:34:53.556Z,3.03
2023-07-23T12:37:24.549Z,2.87
2023-07-23T12:39:52.564Z,2.45
2023-07-23T12:42:20.619Z,3.00
2023-07-23T12:44:49.034Z,3.85
2023-07-23T12:47:18.242Z,2.80
2023-07-23T12:49:46.338Z,3.13
2023-07-23T12:52:14.445Z,2.92
2023-07-23T12:54:42.449Z,3.15
2023-07-23T12:57:10.661Z,3.30
2023-07-23T12:59:38.673Z,2.50
2023-07-23T13:02:10.218Z,3.25
2023-07-23T13:04:45.648Z,3.30
2023-07-23T13:07:14.017Z,2.83
2023-07-23T13:09:42.019Z,3.05
2023-07-23T13:12:10.302Z,3.55
2023-07-23T13:14:40.764Z,3.50
2023-07-23T13:17:08.780Z,2.88
2023-07-23T13:19:36.884Z,2.50
2023-07-23T13:22:05.932Z,3.33
2023-07-23T13:24:34.090Z,2.97
2023-07-23T13:27:04.061Z,2.40
2023-07-23T13:29:34.425Z,2.55
2023-07-23T13:32:05.471Z,2.42
2023-07-23T13:34:33.528Z,2.30
2023-07-23T13:37:01.788Z,2.55
2023-07-23T13:39:29.831Z,3.03
2023-07-23T13:42:00.227Z,2.42
2023-07-23T13:44:29.417Z,2.28
2023-07-23T13:46:57.547Z,2.88
2023-07-23T13:49:27.916Z,2.55
2023-07-23T13:51:59.123Z,2.10
2023-07-23T13:54:27.164Z,2.15
2023-07-23T13:56:55.217Z,2.08
2023-07-23T13:59:26.647Z,2.28
2023-07-23T14:01:57.593Z,2.63
2023-07-23T14:04:26.931Z,2.38
2023-07-23T14:06:57.292Z,2.63
2023-07-23T14:09:25.369Z,2.50
2023-07-23T14:11:53.492Z,1.77
2023-07-23T14:14:24.192Z,2.13
2023-07-23T14:16:52.190Z,1.92
2023-07-23T14:19:20.329Z,2.20
2023-07-23T14:21:48.379Z,2.30
2023-07-23T14:24:18.780Z,2.30
2023-07-23T14:26:49.608Z,1.70
2023-07-23T14:29:17.659Z,2.17
2023-07-23T14:31:45.676Z,2.25
2023-07-23T14:34:17.106Z,2.25
2023-07-23T14:36:45.190Z,2.45
2023-07-23T14:39:13.218Z,2.10
2023-07-23T14:41:43.600Z,2.03
2023-07-23T14:44:11.990Z,2.15
2023-07-23T14:46:40.105Z,2.17
2023-07-23T14:49:08.253Z,1.90
2023-07-23T14:51:36.273Z,1.90
2023-07-23T14:54:06.878Z,2.60
2023-07-23T14:56:35.068Z,1.95
2023-07-23T14:59:03.127Z,2.08
2023-07-23T15:01:31.370Z,2.20
2023-07-23T15:03:59.820Z,2.20
2023-07-23T15:06:30.776Z,1.80
2023-07-23T15:09:01.856Z,2.10
2023-07-23T15:11:30.625Z,2.15
2023-07-23T15:13:59.357Z,1.83
2023-07-23T15:16:31.134Z,2.00
2023-07-23T15:18:59.491Z,1.85
2023-07-23T15:21:28.055Z,1.73
2023-07-23T15:23:59.368Z,1.92
2023-07-23T15:26:29.462Z,1.77
2023-07-23T15:29:04.580Z,2.03
2023-07-23T15:31:36.510Z,1.92
2023-07-23T15:34:07.408Z,1.65
2023-07-23T15:36:37.832Z,1.80
2023-07-23T15:39:08.209Z,1.70
2023-07-23T15:41:36.212Z,1.80
2023-07-23T15:44:04.331Z,1.30
2023-07-23T15:46:32.294Z,1.80
2023-07-23T15:49:00.425Z,1.85
2023-07-23T15:51:31.922Z,1.50
2023-07-23T15:53:59.998Z,1.75
2023-07-23T15:56:30.649Z,2.03
2023-07-23T15:59:01.463Z,1.73
2023-07-23T16:01:29.797Z,1.92
2023-07-23T16:03:57.961Z,1.85
2023-07-23T16:06:26.402Z,1.73
2023-07-23T16:08:54.507Z,1.75
2023-07-23T16:11:22.681Z,2.00
2023-07-23T16:13:51.130Z,1.52
2023-07-23T16:16:21.785Z,1.15
2023-07-23T16:18:49.962Z,2.15
2023-07-23T16:21:18.008Z,1.73
2023-07-23T16:23:48.663Z,1.60
2023-07-23T16:26:18.595Z,2.00
2023-07-23T16:28:47.762Z,1.73
2023-07-23T16:31:18.568Z,1.75
2023-07-23T16:33:49.221Z,1.60
2023-07-23T16:36:23.259Z,1.92
2023-07-23T16:38:54.170Z,1.80
2023-07-23T16:41:22.476Z,1.63
2023-07-23T16:43:52.410Z,1.70
2023-07-23T16:46:20.620Z,1.48
2023-07-23T16:48:48.915Z,1.33
2023-07-23T16:51:18.079Z,1.40
2023-07-23T16:53:46.119Z,1.70
2023-07-23T16:56:14.233Z,2.00
2023-07-23T16:58:42.368Z,2.03
2023-07-23T17:01:10.460Z,1.45
2023-07-23T17:03:38.660Z,1.77
2023-07-23T17:06:06.826Z,1.75
2023-07-23T17:08:35.360Z,1.58
2023-07-23T17:11:14.650Z,1.33
2023-07-23T17:13:42.778Z,1.35
2023-07-23T17:16:10.838Z,1.50
2023-07-23T17:18:39.393Z,1.73
2023-07-23T17:21:07.377Z,1.60
2023-07-23T17:23:35.505Z,1.40
2023-07-23T17:26:06.211Z,1.50
2023-07-23T17:28:34.200Z,1.75
2023-07-23T17:31:04.546Z,1.60
2023-07-23T17:33:32.743Z,1.50
2023-07-23T17:36:00.814Z,1.30
2023-07-23T17:38:28.889Z,1.58
2023-07-23T17:40:56.959Z,1.48
2023-07-23T17:43:25.067Z,1.48
2023-07-23T17:45:53.345Z,1.65
2023-07-23T17:48:21.552Z,1.67
2023-07-23T17:50:50.086Z,1.80
2023-07-23T17:53:18.248Z,1.60
2023-07-23T17:55:54.518Z,1.85
2023-07-23T17:58:22.833Z,2.00
2023-07-23T18:00:50.914Z,1.70
2023-07-23T18:03:21.921Z,1.70
2023-07-23T18:05:56.227Z,1.83
2023-07-23T18:08:27.401Z,1.75
2023-07-23T18:10:55.934Z,1.60
2023-07-23T18:13:24.058Z,1.88
2023-07-23T18:15:55.486Z,1.60
2023-07-23T18:18:23.888Z,1.80
2023-07-23T18:20:51.957Z,1.63
2023-07-23T18:23:19.944Z,2.03
2023-07-23T18:25:59.065Z,1.95
2023-07-23T18:28:36.250Z,1.55
2023-07-23T18:31:05.056Z,1.77
2023-07-23T18:33:36.193Z,1.50
2023-07-23T18:36:06.581Z,1.58
2023-07-23T18:38:37.960Z,1.52
2023-07-23T18:41:09.315Z,1.63
2023-07-23T18:43:37.353Z,1.75
2023-07-23T18:46:05.363Z,1.75
2023-07-23T18:48:33.445Z,1.70
2023-07-23T18:51:01.476Z,1.58
2023-07-23T18:53:31.809Z,1.50
2023-07-23T18:55:59.793Z,1.42
2023-07-23T18:58:27.812Z,1.40
2023-07-23T19:00:55.868Z,2.00
2023-07-23T19:03:26.210Z,1.98
2023-07-23T19:05:54.211Z,1.40
2023-07-23T19:08:22.293Z,2.13
2023-07-23T19:10:53.219Z,1.30
2023-07-23T19:13:24.251Z,1.77
2023-07-23T19:15:52.327Z,1.70
2023-07-23T19:18:23.316Z,1.60
2023-07-23T19:20:51.845Z,1.55
2023-07-23T19:23:19.941Z,1.60
2023-07-23T19:25:47.973Z,1.38
2023-07-23T19:28:16.138Z,1.60
2023-07-23T19:30:45.760Z,1.67
2023-07-23T19:33:13.806Z,1.75
2023-07-23T19:35:46.117Z,1.77
2023-07-23T19:38:14.122Z,1.90
2023-07-23T19:40:47.406Z,1.70
2023-07-23T19:43:15.499Z,1.88
2023-07-23T19:45:43.582Z,1.75
2023-07-23T19:48:11.723Z,1.73
2023-07-23T19:50:39.771Z,1.77
2023-07-23T19:53:07.791Z,1.60
2023-07-23T19:55:35.893Z,1.98
2023-07-23T19:58:03.904Z,1.60
2023-07-23T20:00:34.883Z,1.55
2023-07-23T20:03:05.580Z,1.73
2023-07-23T20:05:33.705Z,1.50
2023-07-23T20:08:02.114Z,1.77
2023-07-23T20:10:30.200Z,1.85
2023-07-23T20:12:58.242Z,1.80
2023-07-23T20:15:31.353Z,1.40
2023-07-23T20:17:59.408Z,2.28
2023-07-23T20:20:28.664Z,1.70
2023-07-23T20:22:57.188Z,2.00
2023-07-23T20:25:25.409Z,1.60
2023-07-23T20:27:56.344Z,1.70
2023-07-23T20:30:24.599Z,2.05
2023-07-23T20:32:55.228Z,1.92
2023-07-23T20:35:23.785Z,1.80
2023-07-23T20:37:52.431Z,1.80
2023-07-23T20:40:23.404Z,2.10
2023-07-23T20:42:57.394Z,1.90
2023-07-23T20:45:25.423Z,1.67
2023-07-23T20:47:53.520Z,1.65
2023-07-23T20:50:23.483Z,1.80
2023-07-23T20:52:51.705Z,2.00
2023-07-23T20:55:19.711Z,1.88
2023-07-23T20:57:47.771Z,1.88
2023-07-23T21:00:15.894Z,1.90
2023-07-23T21:02:44.003Z,1.75
2023-07-23T21:05:12.419Z,1.60
2023-07-23T21:07:41.204Z,1.85
2023-07-23T21:10:12.246Z,2.00
2023-07-23T21:12:40.325Z,1.88
2023-07-23T21:15:11.626Z,2.30
2023-07-23T21:17:39.749Z,2.47
2023-07-23T21:20:08.777Z,1.88
2023-07-23T21:22:42.069Z,1.90
2023-07-23T21:25:10.254Z,2.10
2023-07-23T21:27:38.367Z,2.10
2023-07-23T21:30:09.854Z,1.85
2023-07-23T21:32:37.963Z,2.13
2023-07-23T21:35:06.631Z,1.67
2023-07-23T21:37:37.200Z,2.03
2023-07-23T21:40:06.798Z,1.90
2023-07-23T21:42:34.835Z,2.08
2023-07-23T21:45:05.647Z,2.22
2023-07-23T21:47:33.739Z,2.17
2023-07-23T21:50:01.808Z,2.58
2023-07-23T21:52:29.888Z,2.25
2023-07-23T21:54:57.914Z,1.70
2023-07-23T21:57:28.893Z,1.98
2023-07-23T21:59:56.961Z,1.90
2023-07-23T22:02:25.343Z,1.80
2023-07-23T22:04:53.541Z,2.20
2023-07-23T22:07:21.560Z,2.10
2023-07-23T22:09:49.596Z,1.98
2023-07-23T22:12:21.255Z,1.77
2023-07-23T22:14:51.646Z,2.00
2023-07-23T22:17:22.740Z,2.00
2023-07-23T22:19:50.778Z,2.15
2023-07-23T22:22:19.908Z,2.13
2023-07-23T22:24:48.882Z,2.10
2023-07-23T22:27:19.824Z,2.50
2023-07-23T22:29:50.407Z,1.92
2023-07-23T22:32:20.905Z,2.30
2023-07-23T22:34:51.266Z,2.25
2023-07-23T22:37:20.503Z,2.28
2023-07-23T22:39:51.545Z,2.25
2023-07-23T22:42:22.811Z,2.33
2023-07-23T22:44:50.981Z,2.20
2023-07-23T22:47:22.403Z,2.35
2023-07-23T22:49:53.803Z,2.08
2023-07-23T22:52:21.982Z,2.03
2023-07-23T22:54:52.442Z,2.00
2023-07-23T22:57:22.700Z,2.00
2023-07-23T22:59:51.165Z,2.55
2023-07-23T23:02:19.250Z,2.08
2023-07-23T23:04:49.636Z,2.22
2023-07-23T23:07:17.864Z,2.25
2023-07-23T23:09:45.857Z,2.20
2023-07-23T23:12:13.915Z,2.13
2023-07-23T23:14:42.042Z,2.10
2023-07-23T23:17:10.071Z,2.17
2023-07-23T23:19:38.046Z,2.30
2023-07-23T23:22:06.377Z,2.22
2023-07-23T23:24:34.423Z,1.80
2023-07-23T23:27:02.463Z,2.00
2023-07-23T23:29:30.566Z,2.40
2023-07-23T23:31:58.567Z,2.28
2023-07-23T23:34:26.821Z,2.55
2023-07-23T23:36:54.930Z,1.75
2023-07-23T23:39:22.912Z,2.45
2023-07-23T23:41:53.726Z,2.17
2023-07-23T23:44:22.573Z,2.53
2023-07-23T23:46:50.604Z,2.42
2023-07-23T23:49:24.000Z,2.08
2023-07-23T23:54:19.600Z,2.20
2023-07-23T23:57:01.534Z,2.17
2023-07-23T23:59:30.655Z,2.75
